sensor_id;sensor_type;location;lat;lon;timestamp;P1;durP1;ratioP1;P2;durP2;ratioP2
32186;SDS011;18686;53.084;8.872;2023-07-20T00:00:16;1.15;;;1.00;;
32186;SDS011;18686;53.084;8.872;2023-07-20T00:02:45;1.90;;;1.38;;
32186;SDS011;18686;53.084;8.872;2023-07-20T00:05:14;3.15;;;1.35;;
32186;SDS011;18686;53.084;8.872;2023-07-20T00:07:45;1.85;;;1.00;;
32186;SDS011;18686;53.084;8.872;2023-07-20T00:10:13;1.80;;;1.10;;
32186;SDS011;18686;53.084;8.872;2023-07-20T00:12:42;1.50;;;1.10;;
32186;SDS011;18686;53.084;8.872;2023-07-20T00:15:14;1.40;;;1.15;;
32186;SDS011;18686;53.084;8.872;2023-07-20T00:17:42;1.75;;;1.20;;
32186;SDS011;18686;53.084;8.872;2023-07-20T00:20:11;1.80;;;1.20;;
32186;SDS011;18686;53.084;8.872;2023-07-20T00:22:41;2.13;;;1.17;;
32186;SDS011;18686;53.084;8.872;2023-07-20T00:25:09;1.80;;;1.05;;
32186;SDS011;18686;53.084;8.872;2023-07-20T00:27:38;1.10;;;1.00;;
32186;SDS011;18686;53.084;8.872;2023-07-20T00:30:08;1.85;;;1.00;;
32186;SDS011;18686;53.084;8.872;2023-07-20T00:32:38;1.30;;;0.90;;
32186;SDS011;18686;53.084;8.872;2023-07-20T00:35:06;1.25;;;1.10;;
32186;SDS011;18686;53.084;8.872;2023-07-20T00:37:35;1.38;;;1.08;;
32186;SDS011;18686;53.084;8.872;2023-07-20T00:40:04;3.67;;;0.88;;
32186;SDS011;18686;53.084;8.872;2023-07-20T00:42:34;3.72;;;1.25;;
32186;SDS011;18686;53.084;8.872;2023-07-20T00:45:02;1.88;;;0.98;;
32186;SDS011;18686;53.084;8.872;2023-07-20T00:47:32;2.28;;;0.90;;
32186;SDS011;18686;53.084;8.872;2023-07-20T00:50:01;1.23;;;1.00;;
32186;SDS011;18686;53.084;8.872;2023-07-20T00:52:31;1.25;;;0.65;;
32186;SDS011;18686;53.084;8.872;2023-07-20T00:55:00;1.63;;;0.90;;
32186;SDS011;18686;53.084;8.872;2023-07-20T00:57:29;0.95;;;0.80;;
32186;SDS011;18686;53.084;8.872;2023-07-20T00:59:58;2.40;;;1.25;;
32186;SDS011;18686;53.084;8.872;2023-07-20T01:02:26;3.50;;;1.23;;
32186;SDS011;18686;53.084;8.872;2023-07-20T01:04:56;2.15;;;1.27;;
32186;SDS011;18686;53.084;8.872;2023-07-20T01:07:26;1.77;;;1.13;;
32186;SDS011;18686;53.084;8.872;2023-07-20T01:10:00;1.98;;;1.48;;
32186;SDS011;18686;53.084;8.872;2023-07-20T01:12:35;3.33;;;1.92;;
32186;SDS011;18686;53.084;8.872;2023-07-20T01:15:09;2.63;;;1.75;;
32186;SDS011;18686;53.084;8.872;2023-07-20T01:17:38;7.47;;;2.00;;
32186;SDS011;18686;53.084;8.872;2023-07-20T01:20:09;3.25;;;2.28;;
32186;SDS011;18686;53.084;8.872;2023-07-20T01:22:47;4.18;;;2.70;;
32186;SDS011;18686;53.084;8.872;2023-07-20T01:25:52;4.53;;;2.28;;
32186;SDS011;18686;53.084;8.872;2023-07-20T01:28:51;4.25;;;2.17;;
32186;SDS011;18686;53.084;8.872;2023-07-20T01:31:33;5.22;;;2.38;;
32186;SDS011;18686;53.084;8.872;2023-07-20T01:34:04;4.90;;;2.17;;
32186;SDS011;18686;53.084;8.872;2023-07-20T01:36:36;3.33;;;2.08;;
32186;SDS011;18686;53.084;8.872;2023-07-20T01:39:06;2.08;;;1.63;;
32186;SDS011;18686;53.084;8.872;2023-07-20T01:41:36;3.28;;;1.17;;
32186;SDS011;18686;53.084;8.872;2023-07-20T01:44:05;1.65;;;1.27;;
32186;SDS011;18686;53.084;8.872;2023-07-20T01:46:35;1.05;;;0.98;;
32186;SDS011;18686;53.084;8.872;2023-07-20T01:49:03;1.20;;;0.90;;
32186;SDS011;18686;53.084;8.872;2023-07-20T01:51:32;1.30;;;1.15;;
32186;SDS011;18686;53.084;8.872;2023-07-20T01:54:00;1.00;;;0.80;;
32186;SDS011;18686;53.084;8.872;2023-07-20T01:56:29;2.50;;;1.00;;
32186;SDS011;18686;53.084;8.872;2023-07-20T01:58:57;1.55;;;0.90;;
32186;SDS011;18686;53.084;8.872;2023-07-20T02:01:25;1.30;;;1.00;;
32186;SDS011;18686;53.084;8.872;2023-07-20T02:03:56;1.60;;;1.08;;
32186;SDS011;18686;53.084;8.872;2023-07-20T02:06:25;1.17;;;0.73;;
32186;SDS011;18686;53.084;8.872;2023-07-20T02:08:53;2.30;;;1.10;;
32186;SDS011;18686;53.084;8.872;2023-07-20T02:11:21;1.38;;;1.20;;
32186;SDS011;18686;53.084;8.872;2023-07-20T02:13:50;2.40;;;1.23;;
32186;SDS011;18686;53.084;8.872;2023-07-20T02:16:18;1.60;;;1.48;;
32186;SDS011;18686;53.084;8.872;2023-07-20T02:18:47;1.88;;;1.77;;
32186;SDS011;18686;53.084;8.872;2023-07-20T02:21:17;2.95;;;1.40;;
32186;SDS011;18686;53.084;8.872;2023-07-20T02:23:45;1.88;;;1.60;;
32186;SDS011;18686;53.084;8.872;2023-07-20T02:26:16;1.63;;;1.15;;
32186;SDS011;18686;53.084;8.872;2023-07-20T02:28:44;1.90;;;0.88;;
32186;SDS011;18686;53.084;8.872;2023-07-20T02:34:00;1.20;;;0.70;;
32186;SDS011;18686;53.084;8.872;2023-07-20T02:36:30;0.77;;;0.60;;
32186;SDS011;18686;53.084;8.872;2023-07-20T02:38:59;0.77;;;0.60;;
32186;SDS011;18686;53.084;8.872;2023-07-20T02:41:29;1.63;;;0.60;;
32186;SDS011;18686;53.084;8.872;2023-07-20T02:43:57;1.83;;;0.82;;
32186;SDS011;18686;53.084;8.872;2023-07-20T02:46:25;0.88;;;0.80;;
32186;SDS011;18686;53.084;8.872;2023-07-20T02:48:57;1.17;;;0.98;;
32186;SDS011;18686;53.084;8.872;2023-07-20T02:51:26;1.15;;;0.70;;
32186;SDS011;18686;53.084;8.872;2023-07-20T02:53:55;1.92;;;0.82;;
32186;SDS011;18686;53.084;8.872;2023-07-20T02:56:24;0.70;;;0.60;;
32186;SDS011;18686;53.084;8.872;2023-07-20T02:58:53;1.40;;;0.68;;
32186;SDS011;18686;53.084;8.872;2023-07-20T03:01:21;0.98;;;0.80;;
32186;SDS011;18686;53.084;8.872;2023-07-20T03:03:49;1.10;;;0.68;;
32186;SDS011;18686;53.084;8.872;2023-07-20T03:06:18;0.80;;;0.70;;
32186;SDS011;18686;53.084;8.872;2023-07-20T03:08:47;0.98;;;0.68;;
32186;SDS011;18686;53.084;8.872;2023-07-20T03:11:20;0.77;;;0.63;;
32186;SDS011;18686;53.084;8.872;2023-07-20T03:13:48;1.25;;;0.80;;
32186;SDS011;18686;53.084;8.872;2023-07-20T03:16:18;1.02;;;0.70;;
32186;SDS011;18686;53.084;8.872;2023-07-20T03:18:49;1.25;;;0.80;;
32186;SDS011;18686;53.084;8.872;2023-07-20T03:21:17;1.40;;;1.00;;
32186;SDS011;18686;53.084;8.872;2023-07-20T03:23:46;4.38;;;3.38;;
32186;SDS011;18686;53.084;8.872;2023-07-20T03:26:16;4.13;;;3.22;;
32186;SDS011;18686;53.084;8.872;2023-07-20T03:28:46;4.30;;;2.65;;
32186;SDS011;18686;53.084;8.872;2023-07-20T03:31:14;2.17;;;1.70;;
32186;SDS011;18686;53.084;8.872;2023-07-20T03:33:43;2.80;;;1.83;;
32186;SDS011;18686;53.084;8.872;2023-07-20T03:36:11;2.72;;;2.33;;
32186;SDS011;18686;53.084;8.872;2023-07-20T03:38:40;3.88;;;2.30;;
32186;SDS011;18686;53.084;8.872;2023-07-20T03:41:08;4.30;;;2.53;;
32186;SDS011;18686;53.084;8.872;2023-07-20T03:43:39;3.45;;;2.33;;
32186;SDS011;18686;53.084;8.872;2023-07-20T03:46:09;4.28;;;2.33;;
32186;SDS011;18686;53.084;8.872;2023-07-20T03:48:37;2.65;;;2.10;;
32186;SDS011;18686;53.084;8.872;2023-07-20T03:51:08;4.43;;;2.70;;
32186;SDS011;18686;53.084;8.872;2023-07-20T03:53:36;3.70;;;2.80;;
32186;SDS011;18686;53.084;8.872;2023-07-20T03:56:05;3.13;;;2.80;;
32186;SDS011;18686;53.084;8.872;2023-07-20T03:58:33;5.82;;;3.58;;
32186;SDS011;18686;53.084;8.872;2023-07-20T04:01:02;4.78;;;2.58;;
32186;SDS011;18686;53.084;8.872;2023-07-20T04:03:31;4.65;;;3.00;;
32186;SDS011;18686;53.084;8.872;2023-07-20T04:06:00;6.43;;;3.15;;
32186;SDS011;18686;53.084;8.872;2023-07-20T04:08:28;6.63;;;5.30;;
32186;SDS011;18686;53.084;8.872;2023-07-20T04:10:57;5.72;;;3.60;;
32186;SDS011;18686;53.084;8.872;2023-07-20T04:13:25;5.70;;;3.85;;
32186;SDS011;18686;53.084;8.872;2023-07-20T04:15:54;3.97;;;3.42;;
32186;SDS011;18686;53.084;8.872;2023-07-20T04:18:23;5.35;;;3.30;;
32186;SDS011;18686;53.084;8.872;2023-07-20T04:20:52;6.20;;;3.45;;
32186;SDS011;18686;53.084;8.872;2023-07-20T04:23:21;3.83;;;2.72;;
32186;SDS011;18686;53.084;8.872;2023-07-20T04:25:50;3.28;;;2.47;;
32186;SDS011;18686;53.084;8.872;2023-07-20T04:28:20;4.10;;;2.72;;
32186;SDS011;18686;53.084;8.872;2023-07-20T04:33:22;4.72;;;2.60;;
32186;SDS011;18686;53.084;8.872;2023-07-20T04:35:51;5.15;;;2.67;;
32186;SDS011;18686;53.084;8.872;2023-07-20T04:38:27;2.45;;;1.90;;
32186;SDS011;18686;53.084;8.872;2023-07-20T04:41:04;3.88;;;2.60;;
32186;SDS011;18686;53.084;8.872;2023-07-20T04:43:40;4.82;;;1.80;;
32186;SDS011;18686;53.084;8.872;2023-07-20T04:46:10;4.93;;;1.88;;
32186;SDS011;18686;53.084;8.872;2023-07-20T04:48:39;4.18;;;2.47;;
32186;SDS011;18686;53.084;8.872;2023-07-20T04:51:09;5.43;;;2.20;;
32186;SDS011;18686;53.084;8.872;2023-07-20T04:53:39;6.55;;;2.53;;
32186;SDS011;18686;53.084;8.872;2023-07-20T04:56:08;3.80;;;2.08;;
32186;SDS011;18686;53.084;8.872;2023-07-20T04:58:37;4.68;;;2.33;;
32186;SDS011;18686;53.084;8.872;2023-07-20T05:01:06;4.28;;;2.85;;
32186;SDS011;18686;53.084;8.872;2023-07-20T05:03:36;3.15;;;2.85;;
32186;SDS011;18686;53.084;8.872;2023-07-20T05:06:06;5.35;;;3.53;;
32186;SDS011;18686;53.084;8.872;2023-07-20T05:08:36;4.22;;;2.15;;
32186;SDS011;18686;53.084;8.872;2023-07-20T05:11:05;5.88;;;2.38;;
32186;SDS011;18686;53.084;8.872;2023-07-20T05:13:34;7.15;;;3.00;;
32186;SDS011;18686;53.084;8.872;2023-07-20T05:16:03;3.22;;;2.78;;
32186;SDS011;18686;53.084;8.872;2023-07-20T05:18:32;3.97;;;2.25;;
32186;SDS011;18686;53.084;8.872;2023-07-20T05:21:00;5.40;;;2.78;;
32186;SDS011;18686;53.084;8.872;2023-07-20T05:23:29;4.10;;;2.10;;
32186;SDS011;18686;53.084;8.872;2023-07-20T05:25:59;3.72;;;2.38;;
32186;SDS011;18686;53.084;8.872;2023-07-20T05:28:28;4.38;;;2.03;;
32186;SDS011;18686;53.084;8.872;2023-07-20T05:30:56;3.15;;;2.45;;
32186;SDS011;18686;53.084;8.872;2023-07-20T05:33:26;2.80;;;1.85;;
32186;SDS011;18686;53.084;8.872;2023-07-20T05:35:54;1.50;;;1.40;;
32186;SDS011;18686;53.084;8.872;2023-07-20T05:38:23;1.70;;;1.60;;
32186;SDS011;18686;53.084;8.872;2023-07-20T05:40:51;2.40;;;1.85;;
32186;SDS011;18686;53.084;8.872;2023-07-20T05:43:21;1.83;;;1.65;;
32186;SDS011;18686;53.084;8.872;2023-07-20T05:45:49;2.67;;;1.80;;
32186;SDS011;18686;53.084;8.872;2023-07-20T05:48:18;3.47;;;2.50;;
32186;SDS011;18686;53.084;8.872;2023-07-20T05:50:46;3.05;;;2.10;;
32186;SDS011;18686;53.084;8.872;2023-07-20T05:53:15;2.63;;;2.03;;
32186;SDS011;18686;53.084;8.872;2023-07-20T05:55:43;5.13;;;2.65;;
32186;SDS011;18686;53.084;8.872;2023-07-20T05:58:11;5.60;;;2.10;;
32186;SDS011;18686;53.084;8.872;2023-07-20T06:00:41;5.10;;;2.28;;
32186;SDS011;18686;53.084;8.872;2023-07-20T06:03:09;4.30;;;1.88;;
32186;SDS011;18686;53.084;8.872;2023-07-20T06:05:38;7.75;;;1.98;;
32186;SDS011;18686;53.084;8.872;2023-07-20T06:08:07;3.40;;;1.60;;
32186;SDS011;18686;53.084;8.872;2023-07-20T06:10:35;2.72;;;1.40;;
32186;SDS011;18686;53.084;8.872;2023-07-20T06:13:04;2.33;;;1.23;;
32186;SDS011;18686;53.084;8.872;2023-07-20T06:15:32;6.60;;;1.58;;
32186;SDS011;18686;53.084;8.872;2023-07-20T06:18:03;3.20;;;1.70;;
32186;SDS011;18686;53.084;8.872;2023-07-20T06:20:31;4.47;;;1.70;;
32186;SDS011;18686;53.084;8.872;2023-07-20T06:23:00;4.38;;;1.60;;
32186;SDS011;18686;53.084;8.872;2023-07-20T06:25:29;3.33;;;1.50;;
32186;SDS011;18686;53.084;8.872;2023-07-20T06:27:57;5.50;;;1.55;;
32186;SDS011;18686;53.084;8.872;2023-07-20T06:30:26;4.70;;;1.90;;
32186;SDS011;18686;53.084;8.872;2023-07-20T06:32:54;5.25;;;1.73;;
32186;SDS011;18686;53.084;8.872;2023-07-20T06:35:24;6.40;;;2.00;;
32186;SDS011;18686;53.084;8.872;2023-07-20T06:37:52;3.08;;;1.63;;
32186;SDS011;18686;53.084;8.872;2023-07-20T06:40:21;3.83;;;1.70;;
32186;SDS011;18686;53.084;8.872;2023-07-20T06:42:52;2.20;;;1.10;;
32186;SDS011;18686;53.084;8.872;2023-07-20T06:45:24;1.92;;;0.75;;
32186;SDS011;18686;53.084;8.872;2023-07-20T06:47:52;2.10;;;0.82;;
32186;SDS011;18686;53.084;8.872;2023-07-20T06:50:20;2.10;;;0.50;;
32186;SDS011;18686;53.084;8.872;2023-07-20T06:52:55;4.40;;;0.50;;
32186;SDS011;18686;53.084;8.872;2023-07-20T06:55:24;4.00;;;0.77;;
32186;SDS011;18686;53.084;8.872;2023-07-20T06:57:57;3.70;;;0.67;;
32186;SDS011;18686;53.084;8.872;2023-07-20T07:00:26;1.65;;;0.50;;
32186;SDS011;18686;53.084;8.872;2023-07-20T07:02:54;3.33;;;0.70;;
32186;SDS011;18686;53.084;8.872;2023-07-20T07:05:23;1.70;;;0.63;;
32186;SDS011;18686;53.084;8.872;2023-07-20T07:08:03;1.20;;;0.60;;
32186;SDS011;18686;53.084;8.872;2023-07-20T07:10:32;1.23;;;0.50;;
32186;SDS011;18686;53.084;8.872;2023-07-20T07:13:02;2.92;;;0.93;;
32186;SDS011;18686;53.084;8.872;2023-07-20T07:15:31;2.17;;;0.70;;
32186;SDS011;18686;53.084;8.872;2023-07-20T07:18:00;1.92;;;0.80;;
32186;SDS011;18686;53.084;8.872;2023-07-20T07:20:30;2.47;;;0.60;;
32186;SDS011;18686;53.084;8.872;2023-07-20T07:22:59;2.90;;;0.85;;
32186;SDS011;18686;53.084;8.872;2023-07-20T07:25:29;3.60;;;0.93;;
32186;SDS011;18686;53.084;8.872;2023-07-20T07:27:59;2.80;;;0.70;;
32186;SDS011;18686;53.084;8.872;2023-07-20T07:30:27;1.17;;;0.43;;
32186;SDS011;18686;53.084;8.872;2023-07-20T07:32:58;2.13;;;0.60;;
32186;SDS011;18686;53.084;8.872;2023-07-20T07:35:26;3.28;;;0.73;;
32186;SDS011;18686;53.084;8.872;2023-07-20T07:37:55;3.90;;;0.60;;
32186;SDS011;18686;53.084;8.872;2023-07-20T07:40:45;1.73;;;0.52;;
32186;SDS011;18686;53.084;8.872;2023-07-20T07:43:13;5.57;;;0.60;;
32186;SDS011;18686;53.084;8.872;2023-07-20T07:45:42;5.20;;;0.75;;
32186;SDS011;18686;53.084;8.872;2023-07-20T07:48:10;2.97;;;0.50;;
32186;SDS011;18686;53.084;8.872;2023-07-20T07:50:39;1.52;;;0.50;;
32186;SDS011;18686;53.084;8.872;2023-07-20T07:53:08;2.33;;;0.60;;
32186;SDS011;18686;53.084;8.872;2023-07-20T07:55:37;2.92;;;0.98;;
32186;SDS011;18686;53.084;8.872;2023-07-20T07:58:06;5.70;;;1.00;;
32186;SDS011;18686;53.084;8.872;2023-07-20T08:00:35;2.40;;;0.55;;
32186;SDS011;18686;53.084;8.872;2023-07-20T08:03:05;3.65;;;0.70;;
32186;SDS011;18686;53.084;8.872;2023-07-20T08:05:34;1.58;;;0.68;;
32186;SDS011;18686;53.084;8.872;2023-07-20T08:08:03;3.30;;;1.00;;
32186;SDS011;18686;53.084;8.872;2023-07-20T08:10:31;4.50;;;1.10;;
32186;SDS011;18686;53.084;8.872;2023-07-20T08:13:00;3.08;;;0.82;;
32186;SDS011;18686;53.084;8.872;2023-07-20T08:15:30;2.83;;;1.00;;
32186;SDS011;18686;53.084;8.872;2023-07-20T08:17:58;3.55;;;1.02;;
32186;SDS011;18686;53.084;8.872;2023-07-20T08:20:27;2.28;;;1.10;;
32186;SDS011;18686;53.084;8.872;2023-07-20T08:22:55;7.70;;;1.20;;
32186;SDS011;18686;53.084;8.872;2023-07-20T08:25:25;6.93;;;1.08;;
32186;SDS011;18686;53.084;8.872;2023-07-20T08:27:53;2.38;;;0.93;;
32186;SDS011;18686;53.084;8.872;2023-07-20T08:30:21;4.55;;;0.90;;
32186;SDS011;18686;53.084;8.872;2023-07-20T08:32:52;5.32;;;0.80;;
32186;SDS011;18686;53.084;8.872;2023-07-20T08:35:20;4.18;;;1.10;;
32186;SDS011;18686;53.084;8.872;2023-07-20T08:37:49;4.63;;;1.15;;
32186;SDS011;18686;53.084;8.872;2023-07-20T08:40:17;3.47;;;1.00;;
32186;SDS011;18686;53.084;8.872;2023-07-20T08:42:46;7.07;;;1.20;;
32186;SDS011;18686;53.084;8.872;2023-07-20T08:45:14;4.65;;;1.20;;
32186;SDS011;18686;53.084;8.872;2023-07-20T08:47:45;5.75;;;1.42;;
32186;SDS011;18686;53.084;8.872;2023-07-20T08:50:17;5.65;;;1.25;;
32186;SDS011;18686;53.084;8.872;2023-07-20T08:52:47;2.95;;;0.95;;
32186;SDS011;18686;53.084;8.872;2023-07-20T08:55:15;5.57;;;0.98;;
32186;SDS011;18686;53.084;8.872;2023-07-20T08:57:44;2.08;;;1.10;;
32186;SDS011;18686;53.084;8.872;2023-07-20T09:00:16;4.97;;;1.33;;
32186;SDS011;18686;53.084;8.872;2023-07-20T09:02:47;3.63;;;1.17;;
32186;SDS011;18686;53.084;8.872;2023-07-20T09:05:19;3.25;;;1.13;;
32186;SDS011;18686;53.084;8.872;2023-07-20T09:07:50;2.28;;;0.95;;
32186;SDS011;18686;53.084;8.872;2023-07-20T09:10:20;3.22;;;0.88;;
32186;SDS011;18686;53.084;8.872;2023-07-20T09:12:49;2.30;;;0.90;;
32186;SDS011;18686;53.084;8.872;2023-07-20T09:15:18;3.28;;;1.15;;
32186;SDS011;18686;53.084;8.872;2023-07-20T09:17:48;3.30;;;1.35;;
32186;SDS011;18686;53.084;8.872;2023-07-20T09:20:18;2.33;;;0.82;;
32186;SDS011;18686;53.084;8.872;2023-07-20T09:22:50;4.03;;;1.20;;
32186;SDS011;18686;53.084;8.872;2023-07-20T09:25:21;2.72;;;1.33;;
32186;SDS011;18686;53.084;8.872;2023-07-20T09:27:54;4.05;;;1.00;;
32186;SDS011;18686;53.084;8.872;2023-07-20T09:30:25;3.00;;;1.30;;
32186;SDS011;18686;53.084;8.872;2023-07-20T09:32:56;3.72;;;0.93;;
32186;SDS011;18686;53.084;8.872;2023-07-20T09:35:27;1.52;;;0.90;;
32186;SDS011;18686;53.084;8.872;2023-07-20T09:38:08;1.85;;;0.93;;
32186;SDS011;18686;53.084;8.872;2023-07-20T09:40:40;1.15;;;0.75;;
32186;SDS011;18686;53.084;8.872;2023-07-20T09:43:11;2.35;;;1.10;;
32186;SDS011;18686;53.084;8.872;2023-07-20T09:45:44;2.35;;;0.88;;
32186;SDS011;18686;53.084;8.872;2023-07-20T09:48:15;3.17;;;1.05;;
32186;SDS011;18686;53.084;8.872;2023-07-20T09:50:53;3.90;;;0.90;;
32186;SDS011;18686;53.084;8.872;2023-07-20T09:53:22;3.22;;;1.00;;
32186;SDS011;18686;53.084;8.872;2023-07-20T09:55:53;2.58;;;0.85;;
32186;SDS011;18686;53.084;8.872;2023-07-20T09:58:22;1.90;;;0.93;;
32186;SDS011;18686;53.084;8.872;2023-07-20T10:00:51;4.00;;;1.10;;
32186;SDS011;18686;53.084;8.872;2023-07-20T10:03:27;4.73;;;1.13;;
32186;SDS011;18686;53.084;8.872;2023-07-20T10:06:05;1.70;;;0.95;;
32186;SDS011;18686;53.084;8.872;2023-07-20T10:08:38;5.97;;;0.80;;
32186;SDS011;18686;53.084;8.872;2023-07-20T10:11:11;1.45;;;0.75;;
32186;SDS011;18686;53.084;8.872;2023-07-20T10:13:43;2.78;;;0.90;;
32186;SDS011;18686;53.084;8.872;2023-07-20T10:16:14;1.25;;;0.75;;
32186;SDS011;18686;53.084;8.872;2023-07-20T10:18:50;2.78;;;1.08;;
32186;SDS011;18686;53.084;8.872;2023-07-20T10:21:26;2.90;;;0.90;;
32186;SDS011;18686;53.084;8.872;2023-07-20T10:23:59;1.67;;;0.90;;
32186;SDS011;18686;53.084;8.872;2023-07-20T10:26:28;3.40;;;0.80;;
32186;SDS011;18686;53.084;8.872;2023-07-20T10:28:58;2.42;;;1.10;;
32186;SDS011;18686;53.084;8.872;2023-07-20T10:31:27;2.00;;;1.20;;
32186;SDS011;18686;53.084;8.872;2023-07-20T10:33:56;1.85;;;1.00;;
32186;SDS011;18686;53.084;8.872;2023-07-20T10:36:27;3.47;;;1.30;;
32186;SDS011;18686;53.084;8.872;2023-07-20T10:38:58;5.00;;;1.20;;
32186;SDS011;18686;53.084;8.872;2023-07-20T10:41:28;2.45;;;1.10;;
32186;SDS011;18686;53.084;8.872;2023-07-20T10:43:58;2.33;;;1.23;;
32186;SDS011;18686;53.084;8.872;2023-07-20T10:46:34;2.53;;;1.20;;
32186;SDS011;18686;53.084;8.872;2023-07-20T10:49:10;1.65;;;0.93;;
32186;SDS011;18686;53.084;8.872;2023-07-20T10:51:42;1.48;;;0.70;;
32186;SDS011;18686;53.084;8.872;2023-07-20T10:57:22;2.83;;;1.45;;
32186;SDS011;18686;53.084;8.872;2023-07-20T11:02:52;0.93;;;0.68;;
32186;SDS011;18686;53.084;8.872;2023-07-20T11:05:33;1.90;;;0.80;;
32186;SDS011;18686;53.084;8.872;2023-07-20T11:08:05;1.35;;;0.60;;
32186;SDS011;18686;53.084;8.872;2023-07-20T11:10:37;1.17;;;0.90;;
32186;SDS011;18686;53.084;8.872;2023-07-20T11:13:16;2.67;;;0.80;;
32186;SDS011;18686;53.084;8.872;2023-07-20T11:16:01;1.60;;;0.70;;
32186;SDS011;18686;53.084;8.872;2023-07-20T11:18:34;2.63;;;0.68;;
32186;SDS011;18686;53.084;8.872;2023-07-20T11:21:08;1.42;;;0.80;;
32186;SDS011;18686;53.084;8.872;2023-07-20T11:23:39;1.88;;;0.95;;
32186;SDS011;18686;53.084;8.872;2023-07-20T11:26:08;2.28;;;1.02;;
32186;SDS011;18686;53.084;8.872;2023-07-20T11:28:38;1.25;;;0.80;;
32186;SDS011;18686;53.084;8.872;2023-07-20T11:31:06;2.15;;;1.08;;
32186;SDS011;18686;53.084;8.872;2023-07-20T11:33:35;4.47;;;0.70;;
32186;SDS011;18686;53.084;8.872;2023-07-20T11:36:04;2.83;;;0.73;;
32186;SDS011;18686;53.084;8.872;2023-07-20T11:38:36;1.38;;;0.90;;
32186;SDS011;18686;53.084;8.872;2023-07-20T11:41:09;2.53;;;0.80;;
32186;SDS011;18686;53.084;8.872;2023-07-20T11:43:38;1.35;;;0.80;;
32186;SDS011;18686;53.084;8.872;2023-07-20T11:46:09;1.63;;;0.70;;
32186;SDS011;18686;53.084;8.872;2023-07-20T11:48:37;1.38;;;0.90;;
32186;SDS011;18686;53.084;8.872;2023-07-20T11:51:06;1.40;;;0.68;;
32186;SDS011;18686;53.084;8.872;2023-07-20T11:53:41;2.22;;;1.02;;
32186;SDS011;18686;53.084;8.872;2023-07-20T11:56:12;1.92;;;1.00;;
32186;SDS011;18686;53.084;8.872;2023-07-20T11:58:43;3.08;;;0.90;;
32186;SDS011;18686;53.084;8.872;2023-07-20T12:01:12;3.22;;;0.80;;
32186;SDS011;18686;53.084;8.872;2023-07-20T12:03:41;3.10;;;0.90;;
32186;SDS011;18686;53.084;8.872;2023-07-20T12:06:11;2.45;;;1.00;;
32186;SDS011;18686;53.084;8.872;2023-07-20T12:08:58;2.03;;;1.02;;
32186;SDS011;18686;53.084;8.872;2023-07-20T12:11:32;5.70;;;0.90;;
32186;SDS011;18686;53.084;8.872;2023-07-20T12:14:01;3.40;;;1.17;;
32186;SDS011;18686;53.084;8.872;2023-07-20T12:16:44;4.47;;;1.53;;
32186;SDS011;18686;53.084;8.872;2023-07-20T12:19:20;4.00;;;0.73;;
32186;SDS011;18686;53.084;8.872;2023-07-20T12:21:56;1.27;;;0.55;;
32186;SDS011;18686;53.084;8.872;2023-07-20T12:24:26;2.08;;;0.60;;
32186;SDS011;18686;53.084;8.872;2023-07-20T12:26:57;2.08;;;0.75;;
32186;SDS011;18686;53.084;8.872;2023-07-20T12:29:26;2.25;;;0.70;;
32186;SDS011;18686;53.084;8.872;2023-07-20T12:31:54;0.55;;;0.50;;
32186;SDS011;18686;53.084;8.872;2023-07-20T12:34:23;2.00;;;0.55;;
32186;SDS011;18686;53.084;8.872;2023-07-20T12:36:52;4.00;;;0.80;;
32186;SDS011;18686;53.084;8.872;2023-07-20T12:39:20;1.25;;;0.60;;
32186;SDS011;18686;53.084;8.872;2023-07-20T12:41:49;2.42;;;0.60;;
32186;SDS011;18686;53.084;8.872;2023-07-20T12:44:19;2.20;;;0.60;;
32186;SDS011;18686;53.084;8.872;2023-07-20T12:46:47;1.35;;;0.50;;
32186;SDS011;18686;53.084;8.872;2023-07-20T12:49:16;3.65;;;0.70;;
32186;SDS011;18686;53.084;8.872;2023-07-20T12:51:44;1.02;;;0.60;;
32186;SDS011;18686;53.084;8.872;2023-07-20T12:54:12;2.35;;;1.42;;
32186;SDS011;18686;53.084;8.872;2023-07-20T12:56:41;1.27;;;0.60;;
32186;SDS011;18686;53.084;8.872;2023-07-20T12:59:12;1.70;;;0.70;;
32186;SDS011;18686;53.084;8.872;2023-07-20T13:01:42;1.35;;;0.55;;
32186;SDS011;18686;53.084;8.872;2023-07-20T13:04:11;1.73;;;0.68;;
32186;SDS011;18686;53.084;8.872;2023-07-20T13:06:40;1.60;;;0.50;;
32186;SDS011;18686;53.084;8.872;2023-07-20T13:09:09;1.45;;;0.50;;
32186;SDS011;18686;53.084;8.872;2023-07-20T13:11:37;1.40;;;0.70;;
32186;SDS011;18686;53.084;8.872;2023-07-20T13:14:05;4.38;;;0.80;;
32186;SDS011;18686;53.084;8.872;2023-07-20T13:16:34;3.88;;;0.70;;
32186;SDS011;18686;53.084;8.872;2023-07-20T13:19:03;3.28;;;0.60;;
32186;SDS011;18686;53.084;8.872;2023-07-20T13:21:32;1.67;;;0.70;;
32186;SDS011;18686;53.084;8.872;2023-07-20T13:24:00;0.82;;;0.50;;
32186;SDS011;18686;53.084;8.872;2023-07-20T13:26:30;1.30;;;0.80;;
32186;SDS011;18686;53.084;8.872;2023-07-20T13:28:59;1.65;;;0.75;;
32186;SDS011;18686;53.084;8.872;2023-07-20T13:31:27;3.65;;;0.80;;
32186;SDS011;18686;53.084;8.872;2023-07-20T13:33:59;2.58;;;1.05;;
32186;SDS011;18686;53.084;8.872;2023-07-20T13:36:31;2.05;;;0.65;;
32186;SDS011;18686;53.084;8.872;2023-07-20T13:39:02;1.35;;;0.55;;
32186;SDS011;18686;53.084;8.872;2023-07-20T13:41:32;3.05;;;0.77;;
32186;SDS011;18686;53.084;8.872;2023-07-20T13:44:01;2.28;;;0.90;;
32186;SDS011;18686;53.084;8.872;2023-07-20T13:46:32;1.58;;;1.08;;
32186;SDS011;18686;53.084;8.872;2023-07-20T13:49:04;3.10;;;1.52;;
32186;SDS011;18686;53.084;8.872;2023-07-20T13:51:40;1.95;;;0.70;;
32186;SDS011;18686;53.084;8.872;2023-07-20T13:54:09;3.00;;;0.60;;
32186;SDS011;18686;53.084;8.872;2023-07-20T13:56:40;1.55;;;0.60;;
32186;SDS011;18686;53.084;8.872;2023-07-20T13:59:09;4.78;;;1.15;;
32186;SDS011;18686;53.084;8.872;2023-07-20T14:01:40;2.47;;;0.60;;
32186;SDS011;18686;53.084;8.872;2023-07-20T14:04:09;2.58;;;2.00;;
32186;SDS011;18686;53.084;8.872;2023-07-20T14:06:38;3.75;;;2.75;;
32186;SDS011;18686;53.084;8.872;2023-07-20T14:09:07;3.45;;;0.73;;
32186;SDS011;18686;53.084;8.872;2023-07-20T14:11:36;1.90;;;0.85;;
32186;SDS011;18686;53.084;8.872;2023-07-20T14:14:08;1.42;;;0.63;;
32186;SDS011;18686;53.084;8.872;2023-07-20T14:16:36;2.50;;;0.88;;
32186;SDS011;18686;53.084;8.872;2023-07-20T14:19:04;2.50;;;1.58;;
32186;SDS011;18686;53.084;8.872;2023-07-20T14:21:33;2.38;;;0.98;;
32186;SDS011;18686;53.084;8.872;2023-07-20T14:24:04;2.20;;;0.95;;
32186;SDS011;18686;53.084;8.872;2023-07-20T14:26:37;3.65;;;1.40;;
32186;SDS011;18686;53.084;8.872;2023-07-20T14:31:37;3.60;;;0.98;;
32186;SDS011;18686;53.084;8.872;2023-07-20T14:34:06;3.08;;;0.70;;
32186;SDS011;18686;53.084;8.872;2023-07-20T14:36:34;2.15;;;0.80;;
32186;SDS011;18686;53.084;8.872;2023-07-20T14:39:02;2.13;;;0.98;;
32186;SDS011;18686;53.084;8.872;2023-07-20T14:41:31;2.28;;;0.90;;
32186;SDS011;18686;53.084;8.872;2023-07-20T14:44:01;1.67;;;1.23;;
32186;SDS011;18686;53.084;8.872;2023-07-20T14:46:31;1.80;;;1.10;;
32186;SDS011;18686;53.084;8.872;2023-07-20T14:49:00;1.77;;;0.95;;
32186;SDS011;18686;53.084;8.872;2023-07-20T14:51:29;1.63;;;1.00;;
32186;SDS011;18686;53.084;8.872;2023-07-20T14:54:03;2.28;;;1.27;;
32186;SDS011;18686;53.084;8.872;2023-07-20T14:56:31;2.75;;;1.90;;
32186;SDS011;18686;53.084;8.872;2023-07-20T14:58:59;2.50;;;1.00;;
32186;SDS011;18686;53.084;8.872;2023-07-20T15:01:29;3.85;;;1.48;;
32186;SDS011;18686;53.084;8.872;2023-07-20T15:03:57;4.13;;;1.70;;
32186;SDS011;18686;53.084;8.872;2023-07-20T15:06:27;3.00;;;1.08;;
32186;SDS011;18686;53.084;8.872;2023-07-20T15:08:57;2.53;;;0.80;;
32186;SDS011;18686;53.084;8.872;2023-07-20T15:11:27;4.38;;;2.95;;
32186;SDS011;18686;53.084;8.872;2023-07-20T15:13:56;6.25;;;3.65;;
32186;SDS011;18686;53.084;8.872;2023-07-20T15:16:24;2.50;;;1.52;;
32186;SDS011;18686;53.084;8.872;2023-07-20T15:18:54;3.17;;;1.17;;